createdAt,value
2019-05-20T00:00:17.569Z,998.43
2019-05-20T00:05:13.914Z,998.33
2019-05-20T00:10:11.636Z,998.38
2019-05-20T00:15:10.135Z,998.30
2019-05-20T00:20:07.984Z,998.27
2019-05-20T00:25:06.114Z,998.31
2019-05-20T00:30:02.834Z,998.20
2019-05-20T00:35:00.295Z,998.23
2019-05-20T00:39:57.411Z,998.21
2019-05-20T00:44:54.814Z,998.24
2019-05-20T00:49:51.999Z,998.13
2019-05-20T00:54:49.134Z,998.10
2019-05-20T00:59:46.528Z,998.08
2019-05-20T01:04:43.592Z,998.12
2019-05-20T01:09:41.149Z,998.12
2019-05-20T01:14:39.177Z,998.10
2019-05-20T01:19:35.545Z,998.12
2019-05-20T01:24:32.947Z,998.10
2019-05-20T01:29:31.128Z,998.12
2019-05-20T01:34:28.961Z,998.26
2019-05-20T01:39:25.932Z,998.30
2019-05-20T01:44:23.569Z,998.28
2019-05-20T01:49:21.059Z,998.42
2019-05-20T01:54:18.121Z,998.37
2019-05-20T01:59:16.015Z,998.44
2019-05-20T02:04:12.174Z,998.47
2019-05-20T02:09:09.321Z,998.47
2019-05-20T02:14:06.685Z,998.43
2019-05-20T02:19:04.277Z,998.45
2019-05-20T02:24:01.756Z,998.45
2019-05-20T02:28:58.595Z,998.38
2019-05-20T02:33:55.331Z,998.35
2019-05-20T02:38:52.507Z,998.34
2019-05-20T02:43:51.014Z,998.29
2019-05-20T02:48:49.018Z,998.23
2019-05-20T02:53:46.290Z,998.21
2019-05-20T02:58:44.040Z,998.35
2019-05-20T03:03:42.171Z,998.38
2019-05-20T03:08:38.763Z,998.37
2019-05-20T03:13:35.647Z,998.41
2019-05-20T03:18:32.806Z,998.53
2019-05-20T03:23:29.957Z,998.53
2019-05-20T03:28:27.619Z,998.59
2019-05-20T03:33:25.177Z,998.49
2019-05-20T03:38:21.810Z,998.52
2019-05-20T03:43:18.972Z,998.52
2019-05-20T03:48:15.405Z,998.63
2019-05-20T03:53:12.705Z,998.59
2019-05-20T03:58:13.019Z,998.60
2019-05-20T04:03:09.818Z,998.68
2019-05-20T04:08:07.186Z,998.71
2019-05-20T04:13:05.061Z,998.75
2019-05-20T04:18:01.336Z,998.80
2019-05-20T04:22:58.913Z,998.82
2019-05-20T04:27:56.319Z,998.91
2019-05-20T04:32:53.424Z,998.85
2019-05-20T04:37:50.682Z,998.76
2019-05-20T04:42:47.613Z,998.76
2019-05-20T04:47:44.997Z,998.71
2019-05-20T04:52:42.943Z,998.59
2019-05-20T04:57:39.855Z,998.81
2019-05-20T05:02:36.171Z,998.99
2019-05-20T05:07:32.968Z,999.00
2019-05-20T05:12:30.350Z,999.13
2019-05-20T05:17:28.088Z,999.10
2019-05-20T05:22:26.122Z,999.02
2019-05-20T05:27:24.720Z,998.98
2019-05-20T05:32:21.226Z,999.02
2019-05-20T05:37:18.246Z,999.00
2019-05-20T05:42:15.149Z,999.07
2019-05-20T05:47:12.961Z,999.09
2019-05-20T05:52:09.832Z,999.13
2019-05-20T05:57:06.770Z,999.13
2019-05-20T06:02:03.368Z,999.10
2019-05-20T06:07:00.197Z,999.12
2019-05-20T06:11:57.697Z,999.06
2019-05-20T06:16:54.949Z,999.16
2019-05-20T06:21:51.746Z,999.13
2019-05-20T06:26:50.073Z,999.20
2019-05-20T06:31:46.612Z,999.22
2019-05-20T06:36:44.263Z,999.31
2019-05-20T06:41:42.371Z,999.38
2019-05-20T06:46:39.064Z,999.34
2019-05-20T06:51:37.209Z,999.39
2019-05-20T06:56:34.531Z,999.46
2019-05-20T07:01:32.421Z,999.40
2019-05-20T07:06:44.586Z,999.50
2019-05-20T07:11:30.261Z,999.51
2019-05-20T07:16:27.557Z,999.62
2019-05-20T07:21:24.686Z,999.75
2019-05-20T07:26:21.516Z,999.81
2019-05-20T07:31:19.338Z,999.76
2019-05-20T07:36:16.257Z,999.75
2019-05-20T07:41:13.134Z,999.61
2019-05-20T07:46:10.846Z,999.69
2019-05-20T07:51:09.107Z,999.69
2019-05-20T07:56:05.920Z,999.78
2019-05-20T08:01:04.318Z,999.78
2019-05-20T08:06:01.218Z,999.77
2019-05-20T08:10:58.735Z,999.86
2019-05-20T08:15:55.969Z,999.86
2019-05-20T08:20:53.776Z,999.90
2019-05-20T08:25:50.727Z,999.95
2019-05-20T08:30:47.697Z,1000.00
2019-05-20T08:35:45.130Z,1000.10
2019-05-20T08:40:42.878Z,1000.04
2019-05-20T08:45:39.869Z,1000.12
2019-05-20T08:50:37.002Z,1000.08
2019-05-20T08:55:34.737Z,1000.05
2019-05-20T09:00:31.565Z,1000.02
2019-05-20T09:05:28.992Z,999.87
2019-05-20T09:10:25.673Z,999.98
2019-05-20T09:15:22.991Z,1000.06
2019-05-20T09:20:19.896Z,1000.03
2019-05-20T09:25:16.958Z,999.98
2019-05-20T09:30:13.864Z,999.90
2019-05-20T09:35:10.305Z,999.95
2019-05-20T09:40:08.838Z,1000.01
2019-05-20T09:45:06.848Z,1000.09
2019-05-20T09:50:03.850Z,1000.12
2019-05-20T09:55:00.338Z,1000.12
2019-05-20T09:59:56.906Z,1000.16
2019-05-20T10:04:54.347Z,1000.14
2019-05-20T10:09:52.957Z,1000.14
2019-05-20T10:14:52.703Z,1000.23
2019-05-20T10:19:47.875Z,1000.24
2019-05-20T10:24:45.235Z,1000.35
2019-05-20T10:29:41.727Z,1000.42
2019-05-20T10:34:39.442Z,1000.27
2019-05-20T10:39:36.043Z,1000.25
2019-05-20T10:44:33.267Z,1000.17
2019-05-20T10:49:31.446Z,1000.26
2019-05-20T10:54:28.984Z,1000.25
2019-05-20T10:59:25.417Z,1000.34
2019-05-20T11:04:23.390Z,1000.30
2019-05-20T11:09:19.809Z,1000.36
2019-05-20T11:14:17.333Z,1000.39
2019-05-20T11:19:14.544Z,1000.44
2019-05-20T11:24:11.927Z,1000.52
2019-05-20T11:29:08.248Z,1000.41
2019-05-20T11:34:06.476Z,1000.46
2019-05-20T11:39:06.975Z,1000.43
2019-05-20T11:44:02.969Z,1000.41
2019-05-20T11:48:59.359Z,1000.46
2019-05-20T11:53:55.849Z,1000.46
2019-05-20T11:58:53.285Z,1000.52
2019-05-20T12:03:50.120Z,1000.52
2019-05-20T12:08:47.447Z,1000.48
2019-05-20T12:13:44.369Z,1000.47
2019-05-20T12:18:45.092Z,1000.38
2019-05-20T12:23:41.662Z,1000.32
2019-05-20T12:28:38.767Z,1000.37
2019-05-20T12:33:35.258Z,1000.37
2019-05-20T12:38:32.842Z,1000.31
2019-05-20T12:43:29.707Z,1000.32
2019-05-20T12:48:25.379Z,1000.34
2019-05-20T12:53:21.691Z,1000.32
2019-05-20T12:58:19.187Z,1000.32
2019-05-20T13:03:16.087Z,1000.38
2019-05-20T13:08:13.452Z,1000.34
2019-05-20T13:13:10.578Z,1000.24
2019-05-20T13:18:07.908Z,1000.30
2019-05-20T13:23:07.761Z,1000.17
2019-05-20T13:28:05.326Z,1000.21
2019-05-20T13:33:02.628Z,1000.19
2019-05-20T13:37:59.976Z,1000.20
2019-05-20T13:42:56.691Z,1000.09
2019-05-20T13:47:53.320Z,1000.16
2019-05-20T13:52:50.738Z,1000.11
2019-05-20T13:57:48.410Z,1000.13
2019-05-20T14:02:44.420Z,1000.04
2019-05-20T14:07:42.317Z,1000.03
2019-05-20T14:12:40.599Z,1000.04
2019-05-20T14:17:37.666Z,1000.07
2019-05-20T14:22:34.562Z,999.98
2019-05-20T14:27:32.894Z,999.99
2019-05-20T14:32:30.374Z,999.94
2019-05-20T14:37:28.050Z,999.91
2019-05-20T14:42:25.953Z,999.79
2019-05-20T14:47:22.946Z,999.71
2019-05-20T14:52:20.550Z,999.59
2019-05-20T14:57:19.006Z,999.57
2019-05-20T15:02:15.123Z,999.49
2019-05-20T15:07:28.533Z,999.50
2019-05-20T15:12:13.989Z,999.41
2019-05-20T15:17:11.031Z,999.48
2019-05-20T15:22:09.081Z,999.43
2019-05-20T15:27:07.120Z,999.41
2019-05-20T15:32:05.010Z,999.27
2019-05-20T15:37:01.928Z,999.26
2019-05-20T15:41:59.766Z,999.22
2019-05-20T15:46:55.928Z,999.15
2019-05-20T15:51:54.387Z,999.10
2019-05-20T15:56:51.543Z,999.16
2019-05-20T16:01:49.574Z,999.16
2019-05-20T16:06:45.947Z,999.33
2019-05-20T16:11:42.830Z,999.34
2019-05-20T16:16:39.821Z,999.30
2019-05-20T16:21:37.227Z,999.19
2019-05-20T16:26:34.604Z,999.39
2019-05-20T16:31:31.351Z,999.29
2019-05-20T16:36:28.032Z,999.31
2019-05-20T16:41:24.977Z,999.26
2019-05-20T16:46:22.855Z,999.27
2019-05-20T16:51:22.170Z,999.22
2019-05-20T16:56:19.212Z,999.36
2019-05-20T17:01:16.559Z,999.35
2019-05-20T17:06:13.231Z,999.34
2019-05-20T17:11:11.655Z,999.36
2019-05-20T17:16:08.447Z,999.41
2019-05-20T17:21:05.055Z,999.45
2019-05-20T17:26:02.324Z,999.56
2019-05-20T17:31:00.223Z,999.57
2019-05-20T17:35:57.902Z,999.59
2019-05-20T17:40:56.209Z,999.85
2019-05-20T17:45:52.995Z,999.82
2019-05-20T17:50:49.881Z,999.97
2019-05-20T17:55:47.321Z,1000.08
2019-05-20T18:00:44.291Z,1000.13
2019-05-20T18:05:41.839Z,1000.22
2019-05-20T18:10:42.236Z,1000.18
2019-05-20T18:15:39.199Z,1000.17
2019-05-20T18:20:36.737Z,1000.07
2019-05-20T18:25:33.444Z,1000.17
2019-05-20T18:30:31.203Z,1000.13
2019-05-20T18:35:28.882Z,1000.10
2019-05-20T18:40:25.892Z,1000.04
2019-05-20T18:45:23.940Z,1000.06
2019-05-20T18:50:20.315Z,1000.12
2019-05-20T18:55:18.404Z,1000.05
2019-05-20T19:00:14.855Z,1000.13
2019-05-20T19:05:11.841Z,1000.15
2019-05-20T19:10:09.673Z,1000.16
2019-05-20T19:15:06.514Z,1000.28
2019-05-20T19:20:04.415Z,1000.23
2019-05-20T19:25:02.447Z,1000.22
2019-05-20T19:30:01.324Z,1000.17
2019-05-20T19:34:58.180Z,1000.24
2019-05-20T19:39:55.563Z,1000.35
2019-05-20T19:44:51.597Z,1000.32
2019-05-20T19:49:49.697Z,1000.39
2019-05-20T19:54:46.119Z,1000.35
2019-05-20T19:59:44.504Z,1000.49
2019-05-20T20:04:41.523Z,1000.60
2019-05-20T20:09:38.785Z,1000.62
2019-05-20T20:14:35.309Z,1000.61
2019-05-20T20:19:32.288Z,1000.53
2019-05-20T20:24:29.479Z,1000.60
2019-05-20T20:29:26.514Z,1000.65
2019-05-20T20:34:23.407Z,1000.62
2019-05-20T20:39:20.417Z,1000.71
2019-05-20T20:44:17.681Z,1000.68
2019-05-20T20:49:15.388Z,1000.70
2019-05-20T20:54:12.298Z,1000.70
2019-05-20T20:59:10.468Z,1000.63
2019-05-20T21:04:07.505Z,1000.72
2019-05-20T21:09:05.277Z,1000.74
2019-05-20T21:14:02.173Z,1000.80
2019-05-20T21:19:00.467Z,1000.91
2019-05-20T21:23:58.411Z,1000.87
2019-05-20T21:28:55.551Z,1000.86
2019-05-20T21:33:52.583Z,1000.91
2019-05-20T21:38:50.716Z,1000.96
2019-05-20T21:43:48.119Z,1000.94
2019-05-20T21:48:45.708Z,1000.95
2019-05-20T21:53:42.949Z,1001.03
2019-05-20T21:58:39.663Z,1000.94
2019-05-20T22:03:37.812Z,1000.97
2019-05-20T22:08:34.916Z,1000.94
2019-05-20T22:13:32.074Z,1000.94
2019-05-20T22:18:29.766Z,1001.01
2019-05-20T22:23:27.626Z,1001.04
2019-05-20T22:28:24.024Z,1001.02
2019-05-20T22:33:22.152Z,1001.07
2019-05-20T22:38:19.299Z,1001.03
2019-05-20T22:43:16.061Z,1001.00
2019-05-20T22:48:13.182Z,1001.02
2019-05-20T22:53:11.619Z,1001.17
2019-05-20T22:58:09.280Z,1001.06
2019-05-20T23:03:06.532Z,1001.24
2019-05-20T23:08:04.639Z,1001.17
2019-05-20T23:13:01.792Z,1001.06
2019-05-20T23:17:58.819Z,1001.11
2019-05-20T23:22:55.398Z,1000.91
2019-05-20T23:27:52.366Z,1000.85
2019-05-20T23:32:49.606Z,1000.75
2019-05-20T23:37:46.551Z,1000.65
2019-05-20T23:42:43.758Z,1000.63
2019-05-20T23:47:40.628Z,1000.65
2019-05-20T23:52:37.685Z,1000.63
2019-05-20T23:57:34.954Z,1000.56
